createdAt,value
2022-12-05T00:00:36.583Z,100876.63
2022-12-05T00:03:06.105Z,100874.06
2022-12-05T00:05:32.518Z,100877.63
2022-12-05T00:07:58.920Z,100869.47
2022-12-05T00:10:25.374Z,100870.50
2022-12-05T00:12:51.829Z,100878.84
2022-12-05T00:15:18.341Z,100877.81
2022-12-05T00:17:44.780Z,100881.56
2022-12-05T00:20:11.461Z,100874.41
2022-12-05T00:22:38.453Z,100877.97
2022-12-05T00:25:08.380Z,100881.72
2022-12-05T00:27:34.940Z,100881.38
2022-12-05T00:30:01.771Z,100884.44
2022-12-05T00:32:29.643Z,100888.34
2022-12-05T00:34:56.526Z,100888.00
2022-12-05T00:37:23.444Z,100886.78
2022-12-05T00:39:50.078Z,100892.56
2022-12-05T00:42:16.630Z,100900.03
2022-12-05T00:44:43.047Z,100896.63
2022-12-05T00:47:09.554Z,100907.50
2022-12-05T00:49:35.983Z,100901.41
2022-12-05T00:52:02.404Z,100902.41
2022-12-05T00:54:28.793Z,100910.56
2022-12-05T00:56:58.056Z,100904.41
2022-12-05T00:59:24.421Z,100908.19
2022-12-05T01:01:52.036Z,100914.47
2022-12-05T01:04:24.166Z,100917.34
2022-12-05T01:06:53.825Z,100925.66
2022-12-05T01:09:21.012Z,100919.53
2022-12-05T01:11:48.536Z,100919.03
2022-12-05T01:14:17.435Z,100916.31
2022-12-05T01:16:46.342Z,100919.19
2022-12-05T01:19:16.778Z,100924.09
2022-12-05T01:21:43.520Z,100927.81
2022-12-05T01:24:11.476Z,100929.88
2022-12-05T01:26:39.762Z,100923.75
2022-12-05T01:29:06.440Z,100931.22
2022-12-05T01:31:35.960Z,100932.06
2022-12-05T01:34:06.136Z,100936.50
2022-12-05T01:36:32.599Z,100937.66
2022-12-05T01:38:59.726Z,100935.97
2022-12-05T01:41:32.186Z,100937.97
2022-12-05T01:44:26.475Z,100943.41
2022-12-05T01:46:53.935Z,100940.03
2022-12-05T01:49:42.279Z,100936.44
2022-12-05T01:52:22.750Z,100943.75
2022-12-05T01:54:51.893Z,100939.16
2022-12-05T01:57:18.411Z,100943.75
2022-12-05T01:59:49.848Z,100946.63
2022-12-05T02:02:16.498Z,100943.06
2022-12-05T02:04:58.372Z,100943.91
2022-12-05T02:07:25.226Z,100944.09
2022-12-05T02:09:51.672Z,100943.38
2022-12-05T02:12:20.124Z,100947.28
2022-12-05T02:15:14.605Z,100942.31
2022-12-05T02:17:50.666Z,100953.03
2022-12-05T02:20:48.173Z,100948.63
2022-12-05T02:23:37.635Z,100950.31
2022-12-05T02:26:22.276Z,100953.72
2022-12-05T02:29:09.570Z,100953.56
2022-12-05T02:31:54.254Z,100955.44
2022-12-05T02:34:57.694Z,100945.56
2022-12-05T02:37:39.178Z,100949.13
2022-12-05T02:40:20.042Z,100942.69
2022-12-05T02:43:25.057Z,100937.25
2022-12-05T02:45:56.778Z,100943.22
2022-12-05T02:48:27.960Z,100937.78
2022-12-05T02:50:58.523Z,100940.50
2022-12-05T02:53:27.692Z,100934.06
2022-12-05T02:55:55.095Z,100938.66
2022-12-05T02:58:33.595Z,100936.94
2022-12-05T03:01:00.495Z,100935.41
2022-12-05T03:03:27.517Z,100934.41
2022-12-05T03:06:14.241Z,100938.13
2022-12-05T03:08:57.140Z,100939.81
2022-12-05T03:11:23.697Z,100946.09
2022-12-05T03:13:58.064Z,100940.34
2022-12-05T03:16:39.368Z,100937.63
2022-12-05T03:19:13.078Z,100935.59
2022-12-05T03:21:47.726Z,100941.19
2022-12-05T03:24:14.951Z,100943.06
2022-12-05T03:26:55.075Z,100944.59
2022-12-05T03:29:27.274Z,100951.91
2022-12-05T03:32:22.753Z,100950.19
2022-12-05T03:35:04.761Z,100952.91
2022-12-05T03:37:31.294Z,100955.63
2022-12-05T03:40:08.600Z,100956.66
2022-12-05T03:42:40.482Z,100962.94
2022-12-05T03:45:12.177Z,100960.06
2022-12-05T03:47:41.582Z,100958.34
2022-12-05T03:50:15.795Z,100960.06
2022-12-05T03:53:18.551Z,100960.91
2022-12-05T03:55:42.313Z,100957.50
2022-12-05T03:58:15.110Z,100958.34
2022-12-05T04:00:47.313Z,100964.81
2022-12-05T04:03:23.050Z,100966.69
2022-12-05T04:05:54.981Z,100964.28
2022-12-05T04:08:31.521Z,100969.03
2022-12-05T04:11:03.313Z,100972.59
2022-12-05T04:13:40.575Z,100970.88
2022-12-05T04:16:40.820Z,100975.31
2022-12-05T04:19:18.260Z,100976.31
2022-12-05T04:21:49.539Z,100977.19
2022-12-05T04:24:39.833Z,100977.31
2022-12-05T04:27:09.878Z,100978.50
2022-12-05T04:29:45.740Z,100986.84
2022-12-05T04:32:13.819Z,100982.25
2022-12-05T04:34:46.513Z,100981.22
2022-12-05T04:37:19.554Z,100984.81
2022-12-05T04:39:53.969Z,100985.81
2022-12-05T04:42:25.850Z,100988.53
2022-12-05T04:45:01.712Z,100990.38
2022-12-05T04:47:32.568Z,100991.25
2022-12-05T04:50:00.692Z,100993.09
2022-12-05T04:52:28.918Z,100989.56
2022-12-05T04:55:02.403Z,100993.97
2022-12-05T04:57:37.144Z,100988.53
2022-12-05T05:00:05.023Z,100994.81
2022-12-05T05:02:38.500Z,100988.38
2022-12-05T05:05:13.729Z,100991.97
2022-12-05T05:07:50.626Z,100988.53
2022-12-05T05:10:22.718Z,100994.81
2022-12-05T05:12:49.197Z,100992.28
2022-12-05T05:15:15.675Z,100984.13
2022-12-05T05:17:42.078Z,100990.25
2022-12-05T05:20:23.977Z,100992.97
2022-12-05T05:22:53.491Z,100997.88
2022-12-05T05:25:20.859Z,101002.63
2022-12-05T05:27:52.289Z,101012.63
2022-12-05T05:30:19.952Z,101015.50
2022-12-05T05:32:46.907Z,101016.38
2022-12-05T05:35:14.517Z,101022.13
2022-12-05T05:37:41.009Z,101024.84
2022-12-05T05:40:11.216Z,101025.84
2022-12-05T05:42:42.502Z,101030.41
2022-12-05T05:45:09.931Z,101027.56
2022-12-05T05:47:36.470Z,101028.41
2022-12-05T05:50:03.751Z,101027.38
2022-12-05T05:52:32.847Z,101026.22
2022-12-05T05:54:59.243Z,101026.91
2022-12-05T05:57:25.619Z,101030.34
2022-12-05T05:59:52.337Z,101024.03
2022-12-05T06:02:18.903Z,101032.03
2022-12-05T06:04:45.405Z,101030.16
2022-12-05T06:07:11.825Z,101038.31
2022-12-05T06:09:38.388Z,101035.59
2022-12-05T06:12:05.140Z,101041.88
2022-12-05T06:14:31.609Z,101039.16
2022-12-05T06:16:58.078Z,101044.59
2022-12-05T06:19:24.720Z,101031.00
2022-12-05T06:21:51.478Z,101022.84
2022-12-05T06:24:18.003Z,101028.97
2022-12-05T06:26:44.435Z,101028.97
2022-12-05T06:29:11.586Z,101029.84
2022-12-05T06:31:38.317Z,101036.97
2022-12-05T06:34:04.872Z,101025.44
2022-12-05T06:36:31.643Z,101046.13
2022-12-05T06:38:58.550Z,101049.72
2022-12-05T06:41:27.639Z,101053.16
2022-12-05T06:44:01.380Z,101050.25
2022-12-05T06:46:28.617Z,101056.22
2022-12-05T06:48:57.410Z,101061.34
2022-12-05T06:51:24.666Z,101066.78
2022-12-05T06:53:51.595Z,101066.47
2022-12-05T06:56:19.820Z,101067.16
2022-12-05T06:58:48.295Z,101075.31
2022-12-05T07:01:37.622Z,101066.16
2022-12-05T07:04:06.236Z,101060.72
2022-12-05T07:06:33.900Z,101057.00
2022-12-05T07:09:00.300Z,101063.25
2022-12-05T07:11:27.036Z,101064.09
2022-12-05T07:13:53.572Z,101066.16
2022-12-05T07:16:20.085Z,101066.16
2022-12-05T07:18:46.623Z,101064.44
2022-12-05T07:21:15.029Z,101066.16
2022-12-05T07:23:45.737Z,101058.00
2022-12-05T07:26:15.373Z,101077.03
2022-12-05T07:28:42.259Z,101075.31
2022-12-05T07:31:12.335Z,101081.47
2022-12-05T07:33:39.026Z,101076.03
2022-12-05T07:36:10.130Z,101081.13
2022-12-05T07:38:37.100Z,101086.56
2022-12-05T07:41:13.113Z,101088.13
2022-12-05T07:43:40.748Z,101084.38
2022-12-05T07:46:08.327Z,101089.66
2022-12-05T07:48:34.783Z,101091.38
2022-12-05T07:51:03.591Z,101097.50
2022-12-05T07:53:32.058Z,101093.75
2022-12-05T07:56:00.512Z,101092.59
2022-12-05T07:58:29.366Z,101080.53
2022-12-05T08:00:56.315Z,101082.06
2022-12-05T08:03:22.857Z,101087.50
2022-12-05T08:05:49.359Z,101091.09
2022-12-05T08:08:15.904Z,101094.53
2022-12-05T08:10:42.345Z,101090.94
2022-12-05T08:13:08.767Z,101090.44
2022-12-05T08:15:36.594Z,101089.97
2022-12-05T08:18:03.800Z,101094.06
2022-12-05T08:20:30.605Z,101097.31
2022-12-05T08:22:57.204Z,101099.72
2022-12-05T08:25:23.814Z,101103.13
2022-12-05T08:27:50.335Z,101107.38
2022-12-05T08:30:17.146Z,101113.88
2022-12-05T08:32:43.713Z,101116.13
2022-12-05T08:35:10.251Z,101105.63
2022-12-05T08:37:36.657Z,101100.84
2022-12-05T08:40:03.917Z,101101.38
2022-12-05T08:42:30.408Z,101121.97
2022-12-05T08:44:57.129Z,101122.66
2022-12-05T08:47:23.731Z,101109.59
2022-12-05T08:49:50.093Z,101130.88
2022-12-05T08:52:16.495Z,101133.28
2022-12-05T08:54:42.882Z,101137.53
2022-12-05T08:57:09.261Z,101140.63
2022-12-05T08:59:35.659Z,101147.44
2022-12-05T09:02:02.122Z,101140.81
2022-12-05T09:04:28.852Z,101142.53
2022-12-05T09:06:55.285Z,101136.75
2022-12-05T09:09:21.667Z,101141.84
2022-12-05T09:11:50.728Z,101147.50
2022-12-05T09:14:17.504Z,101147.31
2022-12-05T09:16:45.825Z,101154.47
2022-12-05T09:19:18.546Z,101156.19
2022-12-05T09:21:44.995Z,101164.00
2022-12-05T09:24:13.231Z,101167.25
2022-12-05T09:26:40.530Z,101172.91
2022-12-05T09:29:09.991Z,101171.41
2022-12-05T09:31:42.988Z,101162.69
2022-12-05T09:34:09.805Z,101164.78
2022-12-05T09:36:36.244Z,101171.94
2022-12-05T09:39:05.868Z,101177.75
2022-12-05T09:42:05.400Z,101175.56
2022-12-05T09:44:47.123Z,101179.47
2022-12-05T09:47:25.917Z,101179.47
2022-12-05T09:49:57.939Z,101175.06
2022-12-05T09:52:26.710Z,101177.13
2022-12-05T09:54:53.763Z,101182.41
2022-12-05T09:57:33.726Z,101180.53
2022-12-05T10:00:03.669Z,101180.53
2022-12-05T10:02:44.093Z,101177.66
2022-12-05T10:05:21.457Z,101176.09
2022-12-05T10:08:19.658Z,101168.78
2022-12-05T10:11:14.054Z,101177.63
2022-12-05T10:14:01.877Z,101169.97
2022-12-05T10:16:51.585Z,101174.06
2022-12-05T10:19:28.801Z,101163.34
2022-12-05T10:22:13.707Z,101164.50
2022-12-05T10:24:49.363Z,101159.72
2022-12-05T10:27:24.362Z,101164.50
2022-12-05T10:30:01.499Z,101161.41
2022-12-05T10:32:57.753Z,101167.19
2022-12-05T10:35:27.393Z,101159.34
2022-12-05T10:37:59.091Z,101159.69
2022-12-05T10:40:35.727Z,101154.53
2022-12-05T10:43:03.664Z,101155.91
2022-12-05T10:45:30.124Z,101153.50
2022-12-05T10:47:58.090Z,101157.25
2022-12-05T10:50:35.906Z,101149.56
2022-12-05T10:53:04.147Z,101145.28
2022-12-05T10:55:50.581Z,101155.84
2022-12-05T10:58:30.388Z,101152.78
2022-12-05T11:00:59.114Z,101149.03
2022-12-05T11:03:35.575Z,101158.59
2022-12-05T11:06:15.051Z,101162.34
2022-12-05T11:09:03.794Z,101161.34
2022-12-05T11:11:30.376Z,101161.00
2022-12-05T11:14:21.400Z,101156.59
2022-12-05T11:16:53.374Z,101160.00
2022-12-05T11:19:22.460Z,101152.16
2022-12-05T11:21:49.983Z,101155.91
2022-12-05T11:24:27.510Z,101154.56
2022-12-05T11:26:54.501Z,101159.69
2022-12-05T11:29:39.651Z,101156.81
2022-12-05T11:32:18.417Z,101158.00
2022-12-05T11:34:51.320Z,101159.03
2022-12-05T11:37:26.853Z,101148.78
2022-12-05T11:39:53.310Z,101152.19
2022-12-05T11:42:45.863Z,101146.41
2022-12-05T11:45:40.039Z,101151.50
2022-12-05T11:48:33.735Z,101141.59
2022-12-05T11:51:34.341Z,101145.53
2022-12-05T11:54:41.668Z,101135.81
2022-12-05T11:57:34.187Z,101131.19
2022-12-05T12:00:22.757Z,101127.63
2022-12-05T12:03:01.580Z,101120.97
2022-12-05T12:05:55.064Z,101118.75
2022-12-05T12:08:46.135Z,101113.94
2022-12-05T12:11:26.178Z,101112.56
2022-12-05T12:13:52.634Z,101120.59
2022-12-05T12:16:19.115Z,101129.31
2022-12-05T12:19:23.040Z,101134.13
2022-12-05T12:21:55.281Z,101131.91
2022-12-05T12:24:21.679Z,101136.50
2022-12-05T12:27:16.823Z,101133.13
2022-12-05T12:30:15.076Z,101133.78
2022-12-05T12:33:11.191Z,101138.06
2022-12-05T12:36:12.773Z,101140.66
2022-12-05T12:38:52.291Z,101138.44
2022-12-05T12:41:32.857Z,101150.00
2022-12-05T12:44:20.564Z,101139.78
2022-12-05T12:46:53.803Z,101147.09
2022-12-05T12:49:35.521Z,101152.06
2022-12-05T12:52:05.393Z,101153.59
2022-12-05T12:55:05.735Z,101154.97
2022-12-05T12:57:46.743Z,101152.22
2022-12-05T13:00:39.815Z,101152.22
2022-12-05T13:03:27.315Z,101158.88
2022-12-05T13:05:59.003Z,101154.94
2022-12-05T13:08:52.860Z,101151.69
2022-12-05T13:11:21.217Z,101152.03
2022-12-05T13:13:53.094Z,101155.97
2022-12-05T13:16:25.491Z,101149.81
2022-12-05T13:18:52.790Z,101160.72
2022-12-05T13:21:20.321Z,101161.44
2022-12-05T13:23:49.981Z,101163.09
2022-12-05T13:26:17.741Z,101169.25
2022-12-05T13:28:47.143Z,101160.91
2022-12-05T13:31:16.809Z,101161.75
2022-12-05T13:33:49.272Z,101156.16
2022-12-05T13:36:37.494Z,101163.13
2022-12-05T13:39:26.331Z,101162.13
2022-12-05T13:42:15.280Z,101169.09
2022-12-05T13:44:48.684Z,101164.34
2022-12-05T13:47:32.221Z,101170.66
2022-12-05T13:50:04.678Z,101163.28
2022-12-05T13:52:38.508Z,101162.28
2022-12-05T13:55:22.307Z,101164.16
2022-12-05T13:57:51.716Z,101165.00
2022-12-05T14:00:18.080Z,101163.28
2022-12-05T14:02:47.408Z,101164.34
2022-12-05T14:05:13.799Z,101157.16
2022-12-05T14:07:48.160Z,101167.22
2022-12-05T14:10:20.177Z,101167.72
2022-12-05T14:12:51.214Z,101168.75
2022-12-05T14:15:32.512Z,101169.06
2022-12-05T14:18:13.142Z,101167.53
2022-12-05T14:20:53.685Z,101172.47
2022-12-05T14:23:44.171Z,101172.97
2022-12-05T14:26:48.194Z,101166.16
2022-12-05T14:29:25.948Z,101168.38
2022-12-05T14:32:04.685Z,101168.53
2022-12-05T14:34:34.107Z,101174.00
2022-12-05T14:37:08.061Z,101170.56
2022-12-05T14:39:39.373Z,101168.88
2022-12-05T14:42:21.371Z,101176.34
2022-12-05T14:44:49.731Z,101168.19
2022-12-05T14:47:26.852Z,101167.31
2022-12-05T14:50:23.392Z,101172.09
2022-12-05T14:53:15.003Z,101174.97
2022-12-05T14:55:44.367Z,101170.53
2022-12-05T14:58:31.402Z,101167.81
2022-12-05T15:01:01.989Z,101182.31
2022-12-05T15:03:35.593Z,101179.56
2022-12-05T15:06:05.855Z,101176.84
2022-12-05T15:08:42.259Z,101184.88
2022-12-05T15:11:28.163Z,101182.47
2022-12-05T15:14:10.231Z,101186.22
2022-12-05T15:16:41.121Z,101187.06
2022-12-05T15:19:15.839Z,101189.94
2022-12-05T15:21:50.935Z,101191.81
2022-12-05T15:24:19.726Z,101188.28
2022-12-05T15:26:56.913Z,101182.13
2022-12-05T15:29:26.961Z,101184.16
2022-12-05T15:32:00.098Z,101188.91
2022-12-05T15:34:35.403Z,101190.09
2022-12-05T15:37:13.704Z,101191.28
2022-12-05T15:40:03.830Z,101194.31
2022-12-05T15:42:35.681Z,101193.66
2022-12-05T15:45:14.514Z,101203.84
2022-12-05T15:47:41.774Z,101206.75
2022-12-05T15:50:35.487Z,101208.94
2022-12-05T15:53:37.574Z,101213.88
2022-12-05T15:56:18.601Z,101209.91
2022-12-05T15:59:02.510Z,101212.09
2022-12-05T16:01:29.794Z,101216.03
2022-12-05T16:04:00.130Z,101221.63
2022-12-05T16:06:38.713Z,101221.78
2022-12-05T16:09:11.607Z,101226.22
2022-12-05T16:11:38.653Z,101230.97
2022-12-05T16:14:07.845Z,101228.25
2022-12-05T16:16:37.242Z,101222.81
2022-12-05T16:19:07.067Z,101224.50
2022-12-05T16:21:40.880Z,101227.25
2022-12-05T16:24:18.045Z,101230.97
2022-12-05T16:26:57.979Z,101232.69
2022-12-05T16:29:30.485Z,101225.53
2022-12-05T16:31:59.691Z,101233.69
2022-12-05T16:34:28.231Z,101237.28
2022-12-05T16:36:56.915Z,101236.41
2022-12-05T16:39:25.089Z,101240.84
2022-12-05T16:41:52.285Z,101241.72
2022-12-05T16:44:28.139Z,101243.59
2022-12-05T16:46:56.406Z,101242.72
2022-12-05T16:49:31.536Z,101250.88
2022-12-05T16:52:08.533Z,101247.31
2022-12-05T16:54:35.404Z,101256.66
2022-12-05T16:57:02.872Z,101246.94
2022-12-05T16:59:37.661Z,101246.94
2022-12-05T17:02:07.399Z,101249.81
2022-12-05T17:04:34.004Z,101249.97
2022-12-05T17:07:00.424Z,101253.72
2022-12-05T17:09:27.082Z,101253.72
2022-12-05T17:12:11.028Z,101246.56
2022-12-05T17:14:37.432Z,101241.47
2022-12-05T17:17:05.874Z,101253.03
2022-12-05T17:19:33.181Z,101249.63
2022-12-05T17:22:00.055Z,101247.56
2022-12-05T17:24:28.376Z,101253.72
2022-12-05T17:26:54.828Z,101257.28
2022-12-05T17:29:21.265Z,101254.56
2022-12-05T17:31:47.819Z,101260.88
2022-12-05T17:34:16.519Z,101260.00
2022-12-05T17:36:44.055Z,101258.31
2022-12-05T17:39:10.978Z,101263.91
2022-12-05T17:41:37.427Z,101257.78
2022-12-05T17:44:07.369Z,101258.63
2022-12-05T17:46:33.788Z,101266.97
2022-12-05T17:49:00.255Z,101266.09
2022-12-05T17:51:26.878Z,101257.94
2022-12-05T17:53:54.205Z,101261.53
2022-12-05T17:56:20.891Z,101264.91
2022-12-05T17:58:47.850Z,101266.78
2022-12-05T18:01:16.799Z,101272.94
2022-12-05T18:03:43.858Z,101270.38
2022-12-05T18:06:10.485Z,101264.91
2022-12-05T18:08:39.806Z,101262.19
2022-12-05T18:11:07.052Z,101280.25
2022-12-05T18:13:34.315Z,101279.25
2022-12-05T18:16:01.838Z,101277.53
2022-12-05T18:18:29.370Z,101277.53
2022-12-05T18:21:10.412Z,101278.38
2022-12-05T18:23:37.753Z,101292.84
2022-12-05T18:26:05.443Z,101280.97
2022-12-05T18:28:35.124Z,101278.25
2022-12-05T18:31:08.437Z,101285.56
2022-12-05T18:33:35.059Z,101285.56
2022-12-05T18:36:09.399Z,101284.69
2022-12-05T18:38:36.943Z,101281.25
2022-12-05T18:41:05.110Z,101293.88
2022-12-05T18:43:32.669Z,101288.56
2022-12-05T18:46:01.122Z,101289.44
2022-12-05T18:48:39.450Z,101290.47
2022-12-05T18:51:13.582Z,101283.28
2022-12-05T18:53:41.443Z,101287.88
2022-12-05T18:56:22.253Z,101287.03
2022-12-05T18:59:02.530Z,101294.34
2022-12-05T19:01:30.764Z,101291.63
2022-12-05T19:03:59.474Z,101295.19
2022-12-05T19:06:29.695Z,101293.34
2022-12-05T19:08:58.151Z,101304.22
2022-12-05T19:11:26.340Z,101298.91
2022-12-05T19:14:03.419Z,101299.97
2022-12-05T19:16:33.307Z,101303.69
2022-12-05T19:19:02.109Z,101293.66
2022-12-05T19:21:30.514Z,101298.38
2022-12-05T19:23:57.636Z,101296.53
2022-12-05T19:26:25.430Z,101297.56
2022-12-05T19:28:51.905Z,101298.56
2022-12-05T19:31:20.859Z,101305.72
2022-12-05T19:33:49.486Z,101310.31
2022-12-05T19:36:23.743Z,101305.72
2022-12-05T19:38:52.449Z,101308.59
2022-12-05T19:41:21.737Z,101312.31
2022-12-05T19:43:48.285Z,101304.16
2022-12-05T19:46:20.313Z,101306.00
2022-12-05T19:48:47.801Z,101305.16
2022-12-05T19:51:14.758Z,101308.75
2022-12-05T19:53:42.919Z,101311.63
2022-12-05T19:56:21.337Z,101316.03
2022-12-05T19:58:48.907Z,101321.66
2022-12-05T20:01:24.920Z,101328.97
2022-12-05T20:03:55.706Z,101321.81
2022-12-05T20:06:23.556Z,101326.41
2022-12-05T20:08:52.483Z,101328.13
2022-12-05T20:11:24.957Z,101326.94
2022-12-05T20:13:53.603Z,101322.34
2022-12-05T20:16:22.528Z,101323.06
2022-12-05T20:18:50.159Z,101325.78
2022-12-05T20:21:19.677Z,101322.06
2022-12-05T20:23:46.405Z,101329.19
2022-12-05T20:26:16.323Z,101325.47
2022-12-05T20:28:43.476Z,101321.03
2022-12-05T20:31:11.481Z,101325.47
2022-12-05T20:33:38.828Z,101327.19
2022-12-05T20:36:28.154Z,101331.06
2022-12-05T20:39:00.081Z,101324.59
2022-12-05T20:41:27.390Z,101330.06
2022-12-05T20:43:55.955Z,101325.47
2022-12-05T20:46:23.782Z,101334.50
2022-12-05T20:48:51.294Z,101337.91
2022-12-05T20:51:20.919Z,101341.78
2022-12-05T20:53:47.358Z,101336.69
2022-12-05T20:56:26.268Z,101332.22
2022-12-05T20:58:55.829Z,101339.41
2022-12-05T21:01:23.544Z,101340.25
2022-12-05T21:03:52.001Z,101332.09
2022-12-05T21:06:23.164Z,101336.50
2022-12-05T21:08:50.561Z,101336.50
2022-12-05T21:11:17.117Z,101327.50
2022-12-05T21:13:43.592Z,101330.22
2022-12-05T21:16:13.641Z,101329.19
2022-12-05T21:18:40.852Z,101327.50
2022-12-05T21:21:13.268Z,101323.75
2022-12-05T21:23:40.056Z,101327.50
2022-12-05T21:26:11.577Z,101322.88
2022-12-05T21:28:38.311Z,101315.75
2022-12-05T21:31:13.850Z,101317.63
2022-12-05T21:33:42.250Z,101310.31
2022-12-05T21:36:09.479Z,101308.44
2022-12-05T21:38:36.001Z,101308.59
2022-12-05T21:41:06.344Z,101311.16
2022-12-05T21:43:36.791Z,101312.84
2022-12-05T21:46:04.693Z,101305.72
2022-12-05T21:48:31.921Z,101312.00
2022-12-05T21:50:58.442Z,101317.44
2022-12-05T21:53:24.985Z,101308.28
2022-12-05T21:56:05.477Z,101311.16
2022-12-05T21:58:31.951Z,101310.31
2022-12-05T22:00:58.365Z,101302.28
2022-12-05T22:03:24.749Z,101306.88
2022-12-05T22:05:59.119Z,101311.47
2022-12-05T22:08:25.665Z,101313.50
2022-12-05T22:10:52.117Z,101310.94
2022-12-05T22:13:18.548Z,101309.06
2022-12-05T22:15:44.968Z,101314.50
2022-12-05T22:18:12.136Z,101318.22
2022-12-05T22:20:38.558Z,101317.41
2022-12-05T22:23:04.994Z,101311.97
2022-12-05T22:25:31.360Z,101318.22
2022-12-05T22:27:57.776Z,101319.09
2022-12-05T22:30:24.206Z,101304.63
2022-12-05T22:32:53.707Z,101308.06
2022-12-05T22:35:20.111Z,101314.34
2022-12-05T22:37:46.522Z,101306.00
2022-12-05T22:40:12.988Z,101311.16
2022-12-05T22:42:39.442Z,101311.00
2022-12-05T22:45:06.956Z,101310.31
2022-12-05T22:47:33.336Z,101314.91
2022-12-05T22:49:59.856Z,101311.31
2022-12-05T22:52:26.422Z,101311.16
2022-12-05T22:54:52.843Z,101316.63
2022-12-05T22:57:19.202Z,101313.88
2022-12-05T22:59:45.624Z,101317.63
2022-12-05T23:02:14.875Z,101313.03
2022-12-05T23:04:41.589Z,101306.72
2022-12-05T23:07:08.027Z,101304.00
2022-12-05T23:09:34.441Z,101303.00
2022-12-05T23:12:00.866Z,101305.72
2022-12-05T23:14:27.293Z,101301.97
2022-12-05T23:16:54.105Z,101296.53
2022-12-05T23:19:20.643Z,101305.41
2022-12-05T23:21:47.078Z,101305.41
2022-12-05T23:24:13.554Z,101304.53
2022-12-05T23:26:43.068Z,101302.69
2022-12-05T23:29:12.278Z,101308.13
2022-12-05T23:31:40.017Z,101301.97
2022-12-05T23:34:06.999Z,101301.09
2022-12-05T23:36:34.718Z,101296.53
2022-12-05T23:39:01.941Z,101291.06
2022-12-05T23:41:28.587Z,101292.78
2022-12-05T23:43:55.457Z,101287.88
2022-12-05T23:46:24.702Z,101287.88
2022-12-05T23:48:51.732Z,101293.66
2022-12-05T23:51:21.254Z,101291.06
2022-12-05T23:53:51.606Z,101297.56
2022-12-05T23:56:20.405Z,101293.13
2022-12-05T23:58:47.151Z,101294.84
